sensor_id;sensor_type;location;lat;lon;timestamp;pressure;altitude;pressure_sealevel;temperature
4421;BMP180;11824;51.178;13.546;2023-04-01T00:01:13;98456.00;;;10.90
4421;BMP180;11824;51.178;13.546;2023-04-01T00:03:41;98453.00;;;10.80
4421;BMP180;11824;51.178;13.546;2023-04-01T00:06:11;98451.00;;;10.80
4421;BMP180;11824;51.178;13.546;2023-04-01T00:08:39;98450.00;;;10.90
4421;BMP180;11824;51.178;13.546;2023-04-01T00:11:07;98458.00;;;10.90
4421;BMP180;11824;51.178;13.546;2023-04-01T00:13:35;98452.00;;;10.90
4421;BMP180;11824;51.178;13.546;2023-04-01T00:16:03;98452.00;;;10.90
4421;BMP180;11824;51.178;13.546;2023-04-01T00:18:46;98447.00;;;10.90
4421;BMP180;11824;51.178;13.546;2023-04-01T00:21:15;98450.00;;;10.90
4421;BMP180;11824;51.178;13.546;2023-04-01T00:23:43;98443.00;;;10.90
4421;BMP180;11824;51.178;13.546;2023-04-01T00:26:10;98449.00;;;10.90
4421;BMP180;11824;51.178;13.546;2023-04-01T00:28:39;98440.00;;;10.90
4421;BMP180;11824;51.178;13.546;2023-04-01T00:31:08;98442.00;;;10.90
4421;BMP180;11824;51.178;13.546;2023-04-01T00:33:35;98453.00;;;10.90
4421;BMP180;11824;51.178;13.546;2023-04-01T00:36:07;98446.00;;;10.90
4421;BMP180;11824;51.178;13.546;2023-04-01T00:38:35;98448.00;;;10.90
4421;BMP180;11824;51.178;13.546;2023-04-01T00:41:03;98436.00;;;10.90
4421;BMP180;11824;51.178;13.546;2023-04-01T00:43:31;98446.00;;;10.90
4421;BMP180;11824;51.178;13.546;2023-04-01T00:45:59;98444.00;;;10.80
4421;BMP180;11824;51.178;13.546;2023-04-01T00:48:29;98449.00;;;10.80
4421;BMP180;11824;51.178;13.546;2023-04-01T00:51:01;98449.00;;;10.90
4421;BMP180;11824;51.178;13.546;2023-04-01T00:53:31;98442.00;;;10.80
4421;BMP180;11824;51.178;13.546;2023-04-01T00:56:03;98439.00;;;10.80
4421;BMP180;11824;51.178;13.546;2023-04-01T00:58:35;98443.00;;;10.90
4421;BMP180;11824;51.178;13.546;2023-04-01T01:01:06;98440.00;;;10.90
4421;BMP180;11824;51.178;13.546;2023-04-01T01:03:35;98444.00;;;10.90
4421;BMP180;11824;51.178;13.546;2023-04-01T01:06:10;98450.00;;;10.90
4421;BMP180;11824;51.178;13.546;2023-04-01T01:08:54;98442.00;;;10.90
4421;BMP180;11824;51.178;13.546;2023-04-01T01:11:32;98442.00;;;10.90
4421;BMP180;11824;51.178;13.546;2023-04-01T01:14:19;98452.00;;;10.90
4421;BMP180;11824;51.178;13.546;2023-04-01T01:16:53;98453.00;;;10.90
4421;BMP180;11824;51.178;13.546;2023-04-01T01:22:35;98446.00;;;10.90
4421;BMP180;11824;51.178;13.546;2023-04-01T01:25:18;98453.00;;;10.90
4421;BMP180;11824;51.178;13.546;2023-04-01T01:27:54;98447.00;;;10.90
4421;BMP180;11824;51.178;13.546;2023-04-01T01:30:43;98445.00;;;10.90
4421;BMP180;11824;51.178;13.546;2023-04-01T01:33:35;98447.00;;;10.90
4421;BMP180;11824;51.178;13.546;2023-04-01T01:36:09;98439.00;;;10.90
4421;BMP180;11824;51.178;13.546;2023-04-01T01:38:38;98445.00;;;10.80
4421;BMP180;11824;51.178;13.546;2023-04-01T01:41:07;98443.00;;;10.80
4421;BMP180;11824;51.178;13.546;2023-04-01T01:43:38;98442.00;;;10.80
4421;BMP180;11824;51.178;13.546;2023-04-01T01:46:09;98451.00;;;10.90
4421;BMP180;11824;51.178;13.546;2023-04-01T01:48:38;98440.00;;;10.80
4421;BMP180;11824;51.178;13.546;2023-04-01T01:51:07;98443.00;;;10.90
4421;BMP180;11824;51.178;13.546;2023-04-01T01:53:36;98446.00;;;10.80
4421;BMP180;11824;51.178;13.546;2023-04-01T01:56:03;98443.00;;;10.80
4421;BMP180;11824;51.178;13.546;2023-04-01T01:58:33;98444.00;;;10.80
4421;BMP180;11824;51.178;13.546;2023-04-01T02:01:09;98447.00;;;10.80
4421;BMP180;11824;51.178;13.546;2023-04-01T02:03:39;98452.00;;;10.80
4421;BMP180;11824;51.178;13.546;2023-04-01T02:06:10;98449.00;;;10.80
4421;BMP180;11824;51.178;13.546;2023-04-01T02:08:41;98450.00;;;10.80
4421;BMP180;11824;51.178;13.546;2023-04-01T02:11:13;98444.00;;;10.80
4421;BMP180;11824;51.178;13.546;2023-04-01T02:13:45;98453.00;;;10.80
4421;BMP180;11824;51.178;13.546;2023-04-01T02:16:18;98444.00;;;10.80
4421;BMP180;11824;51.178;13.546;2023-04-01T02:18:49;98449.00;;;10.80
4421;BMP180;11824;51.178;13.546;2023-04-01T02:21:20;98446.00;;;10.80
4421;BMP180;11824;51.178;13.546;2023-04-01T02:23:48;98449.00;;;10.80
4421;BMP180;11824;51.178;13.546;2023-04-01T02:26:16;98450.00;;;10.90
4421;BMP180;11824;51.178;13.546;2023-04-01T02:28:46;98446.00;;;10.80
4421;BMP180;11824;51.178;13.546;2023-04-01T02:31:14;98452.00;;;10.90
4421;BMP180;11824;51.178;13.546;2023-04-01T02:33:42;98446.00;;;10.80
4421;BMP180;11824;51.178;13.546;2023-04-01T02:36:12;98451.00;;;10.80
4421;BMP180;11824;51.178;13.546;2023-04-01T02:38:41;98454.00;;;10.80
4421;BMP180;11824;51.178;13.546;2023-04-01T02:41:09;98459.00;;;10.80
4421;BMP180;11824;51.178;13.546;2023-04-01T02:43:37;98458.00;;;10.80
4421;BMP180;11824;51.178;13.546;2023-04-01T02:46:04;98462.00;;;10.80
4421;BMP180;11824;51.178;13.546;2023-04-01T02:48:32;98459.00;;;10.80
4421;BMP180;11824;51.178;13.546;2023-04-01T02:50:59;98469.00;;;10.80
4421;BMP180;11824;51.178;13.546;2023-04-01T02:53:26;98467.00;;;10.80
4421;BMP180;11824;51.178;13.546;2023-04-01T02:55:54;98469.00;;;10.80
4421;BMP180;11824;51.178;13.546;2023-04-01T02:58:22;98475.00;;;10.80
4421;BMP180;11824;51.178;13.546;2023-04-01T03:00:50;98477.00;;;10.70
4421;BMP180;11824;51.178;13.546;2023-04-01T03:03:17;98477.00;;;10.70
4421;BMP180;11824;51.178;13.546;2023-04-01T03:05:45;98476.00;;;10.70
4421;BMP180;11824;51.178;13.546;2023-04-01T03:08:12;98476.00;;;10.70
4421;BMP180;11824;51.178;13.546;2023-04-01T03:10:39;98479.00;;;10.70
4421;BMP180;11824;51.178;13.546;2023-04-01T03:13:07;98482.00;;;10.70
4421;BMP180;11824;51.178;13.546;2023-04-01T03:15:35;98478.00;;;10.70
4421;BMP180;11824;51.178;13.546;2023-04-01T03:18:02;98475.00;;;10.70
4421;BMP180;11824;51.178;13.546;2023-04-01T03:20:30;98472.00;;;10.70
4421;BMP180;11824;51.178;13.546;2023-04-01T03:22:57;98477.00;;;10.70
4421;BMP180;11824;51.178;13.546;2023-04-01T03:25:25;98478.00;;;10.70
4421;BMP180;11824;51.178;13.546;2023-04-01T03:27:52;98474.00;;;10.70
4421;BMP180;11824;51.178;13.546;2023-04-01T03:30:20;98483.00;;;10.70
4421;BMP180;11824;51.178;13.546;2023-04-01T03:32:47;98485.00;;;10.70
4421;BMP180;11824;51.178;13.546;2023-04-01T03:35:15;98479.00;;;10.70
4421;BMP180;11824;51.178;13.546;2023-04-01T03:37:42;98480.00;;;10.70
4421;BMP180;11824;51.178;13.546;2023-04-01T03:40:11;98484.00;;;10.70
4421;BMP180;11824;51.178;13.546;2023-04-01T03:42:38;98496.00;;;10.70
4421;BMP180;11824;51.178;13.546;2023-04-01T03:45:06;98481.00;;;10.70
4421;BMP180;11824;51.178;13.546;2023-04-01T03:47:34;98495.00;;;10.70
4421;BMP180;11824;51.178;13.546;2023-04-01T03:50:02;98492.00;;;10.70
4421;BMP180;11824;51.178;13.546;2023-04-01T03:52:29;98484.00;;;10.70
4421;BMP180;11824;51.178;13.546;2023-04-01T03:54:57;98485.00;;;10.70
4421;BMP180;11824;51.178;13.546;2023-04-01T03:57:24;98496.00;;;10.70
4421;BMP180;11824;51.178;13.546;2023-04-01T03:59:52;98492.00;;;10.70
4421;BMP180;11824;51.178;13.546;2023-04-01T04:02:19;98494.00;;;10.70
4421;BMP180;11824;51.178;13.546;2023-04-01T04:04:47;98499.00;;;10.70
4421;BMP180;11824;51.178;13.546;2023-04-01T04:07:15;98494.00;;;10.70
4421;BMP180;11824;51.178;13.546;2023-04-01T04:09:42;98494.00;;;10.70
4421;BMP180;11824;51.178;13.546;2023-04-01T04:12:09;98506.00;;;10.70
4421;BMP180;11824;51.178;13.546;2023-04-01T04:14:36;98498.00;;;10.70
4421;BMP180;11824;51.178;13.546;2023-04-01T04:17:04;98503.00;;;10.70
4421;BMP180;11824;51.178;13.546;2023-04-01T04:19:32;98500.00;;;10.70
4421;BMP180;11824;51.178;13.546;2023-04-01T04:22:01;98508.00;;;10.70
4421;BMP180;11824;51.178;13.546;2023-04-01T04:24:28;98503.00;;;10.70
4421;BMP180;11824;51.178;13.546;2023-04-01T04:26:56;98516.00;;;10.70
4421;BMP180;11824;51.178;13.546;2023-04-01T04:29:23;98508.00;;;10.70
4421;BMP180;11824;51.178;13.546;2023-04-01T04:31:50;98510.00;;;10.70
4421;BMP180;11824;51.178;13.546;2023-04-01T04:34:18;98512.00;;;10.70
4421;BMP180;11824;51.178;13.546;2023-04-01T04:36:45;98513.00;;;10.70
4421;BMP180;11824;51.178;13.546;2023-04-01T04:39:13;98518.00;;;10.70
4421;BMP180;11824;51.178;13.546;2023-04-01T04:41:41;98524.00;;;10.70
4421;BMP180;11824;51.178;13.546;2023-04-01T04:44:08;98518.00;;;10.70
4421;BMP180;11824;51.178;13.546;2023-04-01T04:46:36;98518.00;;;10.70
4421;BMP180;11824;51.178;13.546;2023-04-01T04:49:04;98514.00;;;10.70
4421;BMP180;11824;51.178;13.546;2023-04-01T04:51:31;98520.00;;;10.70
4421;BMP180;11824;51.178;13.546;2023-04-01T04:54:00;98521.00;;;10.70
4421;BMP180;11824;51.178;13.546;2023-04-01T04:56:28;98536.00;;;10.80
4421;BMP180;11824;51.178;13.546;2023-04-01T04:58:57;98531.00;;;10.80
4421;BMP180;11824;51.178;13.546;2023-04-01T05:01:25;98542.00;;;10.80
4421;BMP180;11824;51.178;13.546;2023-04-01T05:03:52;98531.00;;;10.80
4421;BMP180;11824;51.178;13.546;2023-04-01T05:06:20;98531.00;;;10.80
4421;BMP180;11824;51.178;13.546;2023-04-01T05:08:50;98541.00;;;10.80
4421;BMP180;11824;51.178;13.546;2023-04-01T05:11:18;98540.00;;;10.80
4421;BMP180;11824;51.178;13.546;2023-04-01T05:13:48;98539.00;;;10.80
4421;BMP180;11824;51.178;13.546;2023-04-01T05:16:21;98545.00;;;10.80
4421;BMP180;11824;51.178;13.546;2023-04-01T05:18:57;98547.00;;;10.90
4421;BMP180;11824;51.178;13.546;2023-04-01T05:21:24;98550.00;;;10.90
4421;BMP180;11824;51.178;13.546;2023-04-01T05:23:52;98558.00;;;10.90
4421;BMP180;11824;51.178;13.546;2023-04-01T05:26:19;98547.00;;;10.90
4421;BMP180;11824;51.178;13.546;2023-04-01T05:28:47;98555.00;;;10.90
4421;BMP180;11824;51.178;13.546;2023-04-01T05:31:14;98559.00;;;10.90
4421;BMP180;11824;51.178;13.546;2023-04-01T05:33:42;98557.00;;;11.00
4421;BMP180;11824;51.178;13.546;2023-04-01T05:36:10;98555.00;;;11.00
4421;BMP180;11824;51.178;13.546;2023-04-01T05:38:38;98561.00;;;11.00
4421;BMP180;11824;51.178;13.546;2023-04-01T05:41:06;98563.00;;;11.00
4421;BMP180;11824;51.178;13.546;2023-04-01T05:43:36;98569.00;;;11.10
4421;BMP180;11824;51.178;13.546;2023-04-01T05:46:04;98562.00;;;11.10
4421;BMP180;11824;51.178;13.546;2023-04-01T05:48:34;98568.00;;;11.10
4421;BMP180;11824;51.178;13.546;2023-04-01T05:51:02;98563.00;;;11.10
4421;BMP180;11824;51.178;13.546;2023-04-01T05:53:29;98563.00;;;11.20
4421;BMP180;11824;51.178;13.546;2023-04-01T05:56:01;98561.00;;;11.20
4421;BMP180;11824;51.178;13.546;2023-04-01T05:58:29;98565.00;;;11.20
4421;BMP180;11824;51.178;13.546;2023-04-01T06:01:02;98568.00;;;11.20
4421;BMP180;11824;51.178;13.546;2023-04-01T06:03:39;98565.00;;;11.30
4421;BMP180;11824;51.178;13.546;2023-04-01T06:06:26;98570.00;;;11.30
4421;BMP180;11824;51.178;13.546;2023-04-01T06:09:12;98572.00;;;11.40
4421;BMP180;11824;51.178;13.546;2023-04-01T06:12:02;98572.00;;;11.40
4421;BMP180;11824;51.178;13.546;2023-04-01T06:14:41;98579.00;;;11.40
4421;BMP180;11824;51.178;13.546;2023-04-01T06:17:23;98575.00;;;11.50
4421;BMP180;11824;51.178;13.546;2023-04-01T06:19:59;98578.00;;;11.50
4421;BMP180;11824;51.178;13.546;2023-04-01T06:22:45;98582.00;;;11.50
4421;BMP180;11824;51.178;13.546;2023-04-01T06:25:33;98580.00;;;11.60
4421;BMP180;11824;51.178;13.546;2023-04-01T06:28:28;98586.00;;;11.60
4421;BMP180;11824;51.178;13.546;2023-04-01T06:31:05;98576.00;;;11.70
4421;BMP180;11824;51.178;13.546;2023-04-01T06:33:50;98590.00;;;11.70
4421;BMP180;11824;51.178;13.546;2023-04-01T06:36:42;98588.00;;;11.80
4421;BMP180;11824;51.178;13.546;2023-04-01T06:39:52;98589.00;;;11.90
4421;BMP180;11824;51.178;13.546;2023-04-01T06:42:44;98587.00;;;11.90
4421;BMP180;11824;51.178;13.546;2023-04-01T06:45:27;98591.00;;;12.00
4421;BMP180;11824;51.178;13.546;2023-04-01T06:50:54;98599.00;;;12.10
4421;BMP180;11824;51.178;13.546;2023-04-01T06:53:30;98600.00;;;12.20
4421;BMP180;11824;51.178;13.546;2023-04-01T06:56:02;98593.00;;;12.20
4421;BMP180;11824;51.178;13.546;2023-04-01T06:58:33;98589.00;;;12.30
4421;BMP180;11824;51.178;13.546;2023-04-01T07:01:03;98602.00;;;12.30
4421;BMP180;11824;51.178;13.546;2023-04-01T07:03:35;98592.00;;;12.40
4421;BMP180;11824;51.178;13.546;2023-04-01T07:06:05;98588.00;;;12.40
4421;BMP180;11824;51.178;13.546;2023-04-01T07:08:35;98602.00;;;12.50
4421;BMP180;11824;51.178;13.546;2023-04-01T07:11:05;98598.00;;;12.50
4421;BMP180;11824;51.178;13.546;2023-04-01T07:13:36;98595.00;;;12.50
4421;BMP180;11824;51.178;13.546;2023-04-01T07:16:12;98613.00;;;12.60
4421;BMP180;11824;51.178;13.546;2023-04-01T07:18:44;98609.00;;;12.60
4421;BMP180;11824;51.178;13.546;2023-04-01T07:21:23;98614.00;;;12.60
4421;BMP180;11824;51.178;13.546;2023-04-01T07:23:52;98614.00;;;12.60
4421;BMP180;11824;51.178;13.546;2023-04-01T07:26:24;98620.00;;;12.70
4421;BMP180;11824;51.178;13.546;2023-04-01T07:28:54;98620.00;;;12.70
4421;BMP180;11824;51.178;13.546;2023-04-01T07:31:41;98606.00;;;12.70
4421;BMP180;11824;51.178;13.546;2023-04-01T07:34:27;98617.00;;;12.70
4421;BMP180;11824;51.178;13.546;2023-04-01T07:37:18;98627.00;;;12.80
4421;BMP180;11824;51.178;13.546;2023-04-01T07:40:01;98618.00;;;12.80
4421;BMP180;11824;51.178;13.546;2023-04-01T07:42:57;98632.00;;;12.90
4421;BMP180;11824;51.178;13.546;2023-04-01T07:45:52;98631.00;;;12.90
4421;BMP180;11824;51.178;13.546;2023-04-01T07:48:46;98625.00;;;13.00
4421;BMP180;11824;51.178;13.546;2023-04-01T07:51:37;98632.00;;;13.00
4421;BMP180;11824;51.178;13.546;2023-04-01T07:57:36;98625.00;;;13.20
4421;BMP180;11824;51.178;13.546;2023-04-01T08:00:09;98633.00;;;13.30
4421;BMP180;11824;51.178;13.546;2023-04-01T08:03:05;98639.00;;;13.40
4421;BMP180;11824;51.178;13.546;2023-04-01T08:05:46;98640.00;;;13.40
4421;BMP180;11824;51.178;13.546;2023-04-01T08:08:23;98645.00;;;13.50
4421;BMP180;11824;51.178;13.546;2023-04-01T08:10:57;98650.00;;;13.50
4421;BMP180;11824;51.178;13.546;2023-04-01T08:13:35;98646.00;;;13.70
4421;BMP180;11824;51.178;13.546;2023-04-01T08:16:17;98656.00;;;13.80
4421;BMP180;11824;51.178;13.546;2023-04-01T08:18:58;98654.00;;;13.80
4421;BMP180;11824;51.178;13.546;2023-04-01T08:21:35;98656.00;;;13.90
4421;BMP180;11824;51.178;13.546;2023-04-01T08:24:16;98663.00;;;13.90
4421;BMP180;11824;51.178;13.546;2023-04-01T08:26:51;98662.00;;;14.00
4421;BMP180;11824;51.178;13.546;2023-04-01T08:29:34;98664.00;;;14.10
4421;BMP180;11824;51.178;13.546;2023-04-01T08:32:09;98660.00;;;14.10
4421;BMP180;11824;51.178;13.546;2023-04-01T08:35:24;98662.00;;;14.20
4421;BMP180;11824;51.178;13.546;2023-04-01T08:38:24;98669.00;;;14.20
4421;BMP180;11824;51.178;13.546;2023-04-01T08:41:02;98661.00;;;14.30
4421;BMP180;11824;51.178;13.546;2023-04-01T08:44:08;98666.00;;;14.40
4421;BMP180;11824;51.178;13.546;2023-04-01T08:50:33;98664.00;;;14.60
4421;BMP180;11824;51.178;13.546;2023-04-01T08:53:35;98661.00;;;14.60
4421;BMP180;11824;51.178;13.546;2023-04-01T08:56:22;98656.00;;;14.70
4421;BMP180;11824;51.178;13.546;2023-04-01T08:59:20;98659.00;;;14.80
4421;BMP180;11824;51.178;13.546;2023-04-01T09:09:44;98657.00;;;14.90
4421;BMP180;11824;51.178;13.546;2023-04-01T09:16:25;98659.00;;;15.00
4421;BMP180;11824;51.178;13.546;2023-04-01T09:19:30;98663.00;;;15.10
4421;BMP180;11824;51.178;13.546;2023-04-01T09:22:41;98671.00;;;15.10
4421;BMP180;11824;51.178;13.546;2023-04-01T09:25:38;98670.00;;;15.20
4421;BMP180;11824;51.178;13.546;2023-04-01T09:28:41;98671.00;;;15.20
4421;BMP180;11824;51.178;13.546;2023-04-01T09:32:02;98671.00;;;15.30
4421;BMP180;11824;51.178;13.546;2023-04-01T09:35:14;98668.00;;;15.40
4421;BMP180;11824;51.178;13.546;2023-04-01T09:37:54;98675.00;;;15.40
4421;BMP180;11824;51.178;13.546;2023-04-01T09:44:21;98663.00;;;15.50
4421;BMP180;11824;51.178;13.546;2023-04-01T09:47:15;98670.00;;;15.50
4421;BMP180;11824;51.178;13.546;2023-04-01T09:54:04;98683.00;;;15.60
4421;BMP180;11824;51.178;13.546;2023-04-01T09:57:16;98680.00;;;15.60
4421;BMP180;11824;51.178;13.546;2023-04-01T10:06:51;98689.00;;;15.40
4421;BMP180;11824;51.178;13.546;2023-04-01T10:10:00;98682.00;;;15.40
4421;BMP180;11824;51.178;13.546;2023-04-01T10:20:01;98689.00;;;15.60
4421;BMP180;11824;51.178;13.546;2023-04-01T10:29:35;98692.00;;;15.40
4421;BMP180;11824;51.178;13.546;2023-04-01T10:36:23;98690.00;;;15.40
4421;BMP180;11824;51.178;13.546;2023-04-01T10:46:35;98699.00;;;15.30
4421;BMP180;11824;51.178;13.546;2023-04-01T10:49:35;98697.00;;;15.40
4421;BMP180;11824;51.178;13.546;2023-04-01T10:52:32;98689.00;;;15.40
4421;BMP180;11824;51.178;13.546;2023-04-01T11:01:39;98696.00;;;15.70
4421;BMP180;11824;51.178;13.546;2023-04-01T11:07:59;98688.00;;;15.90
4421;BMP180;11824;51.178;13.546;2023-04-01T11:26:41;98695.00;;;16.00
4421;BMP180;11824;51.178;13.546;2023-04-01T11:29:30;98696.00;;;16.00
4421;BMP180;11824;51.178;13.546;2023-04-01T11:32:14;98697.00;;;16.10
4421;BMP180;11824;51.178;13.546;2023-04-01T11:35:06;98702.00;;;16.10
4421;BMP180;11824;51.178;13.546;2023-04-01T11:37:49;98703.00;;;16.30
4421;BMP180;11824;51.178;13.546;2023-04-01T11:40:27;98696.00;;;16.40
4421;BMP180;11824;51.178;13.546;2023-04-01T11:43:19;98698.00;;;16.50
4421;BMP180;11824;51.178;13.546;2023-04-01T11:46:12;98702.00;;;16.50
4421;BMP180;11824;51.178;13.546;2023-04-01T11:48:58;98697.00;;;16.50
4421;BMP180;11824;51.178;13.546;2023-04-01T11:55:00;98717.00;;;16.50
4421;BMP180;11824;51.178;13.546;2023-04-01T11:57:47;98708.00;;;16.50
4421;BMP180;11824;51.178;13.546;2023-04-01T12:00:36;98725.00;;;16.60
4421;BMP180;11824;51.178;13.546;2023-04-01T12:03:58;98719.00;;;16.60
4421;BMP180;11824;51.178;13.546;2023-04-01T12:06:40;98719.00;;;16.70
4421;BMP180;11824;51.178;13.546;2023-04-01T12:09:46;98723.00;;;16.80
4421;BMP180;11824;51.178;13.546;2023-04-01T12:12:54;98721.00;;;16.90
4421;BMP180;11824;51.178;13.546;2023-04-01T12:16:02;98724.00;;;16.90
4421;BMP180;11824;51.178;13.546;2023-04-01T12:21:31;98728.00;;;17.00
4421;BMP180;11824;51.178;13.546;2023-04-01T12:27:56;98731.00;;;17.10
4421;BMP180;11824;51.178;13.546;2023-04-01T12:31:00;98734.00;;;17.10
4421;BMP180;11824;51.178;13.546;2023-04-01T12:33:53;98724.00;;;17.10
4421;BMP180;11824;51.178;13.546;2023-04-01T12:36:50;98719.00;;;17.00
4421;BMP180;11824;51.178;13.546;2023-04-01T12:42:44;98724.00;;;16.90
4421;BMP180;11824;51.178;13.546;2023-04-01T12:45:41;98723.00;;;16.90
4421;BMP180;11824;51.178;13.546;2023-04-01T12:48:43;98723.00;;;16.80
4421;BMP180;11824;51.178;13.546;2023-04-01T12:51:32;98718.00;;;16.90
4421;BMP180;11824;51.178;13.546;2023-04-01T12:57:10;98723.00;;;17.00
4421;BMP180;11824;51.178;13.546;2023-04-01T12:59:58;98730.00;;;17.10
4421;BMP180;11824;51.178;13.546;2023-04-01T13:02:38;98725.00;;;17.20
4421;BMP180;11824;51.178;13.546;2023-04-01T13:05:32;98724.00;;;17.20
4421;BMP180;11824;51.178;13.546;2023-04-01T13:08:10;98731.00;;;17.20
4421;BMP180;11824;51.178;13.546;2023-04-01T13:10:50;98729.00;;;17.10
4421;BMP180;11824;51.178;13.546;2023-04-01T13:16:16;98738.00;;;16.80
4421;BMP180;11824;51.178;13.546;2023-04-01T13:18:57;98743.00;;;16.60
4421;BMP180;11824;51.178;13.546;2023-04-01T13:21:34;98736.00;;;16.40
4421;BMP180;11824;51.178;13.546;2023-04-01T13:24:13;98745.00;;;16.20
4421;BMP180;11824;51.178;13.546;2023-04-01T13:26:56;98757.00;;;16.20
4421;BMP180;11824;51.178;13.546;2023-04-01T13:29:34;98754.00;;;16.20
4421;BMP180;11824;51.178;13.546;2023-04-01T13:32:24;98749.00;;;16.30
4421;BMP180;11824;51.178;13.546;2023-04-01T13:35:28;98748.00;;;16.40
4421;BMP180;11824;51.178;13.546;2023-04-01T13:38:21;98750.00;;;16.50
4421;BMP180;11824;51.178;13.546;2023-04-01T13:40:57;98752.00;;;16.60
4421;BMP180;11824;51.178;13.546;2023-04-01T13:43:34;98748.00;;;16.60
4421;BMP180;11824;51.178;13.546;2023-04-01T13:46:22;98748.00;;;16.60
4421;BMP180;11824;51.178;13.546;2023-04-01T13:49:07;98752.00;;;16.50
4421;BMP180;11824;51.178;13.546;2023-04-01T13:55:02;98759.00;;;16.50
4421;BMP180;11824;51.178;13.546;2023-04-01T13:57:56;98753.00;;;16.50
4421;BMP180;11824;51.178;13.546;2023-04-01T14:00:40;98748.00;;;16.50
4421;BMP180;11824;51.178;13.546;2023-04-01T14:03:27;98755.00;;;16.50
4421;BMP180;11824;51.178;13.546;2023-04-01T14:06:23;98749.00;;;16.60
4421;BMP180;11824;51.178;13.546;2023-04-01T14:12:03;98758.00;;;16.70
4421;BMP180;11824;51.178;13.546;2023-04-01T14:14:42;98758.00;;;16.60
4421;BMP180;11824;51.178;13.546;2023-04-01T14:17:27;98761.00;;;16.60
4421;BMP180;11824;51.178;13.546;2023-04-01T14:20:13;98768.00;;;16.60
4421;BMP180;11824;51.178;13.546;2023-04-01T14:22:46;98767.00;;;16.50
4421;BMP180;11824;51.178;13.546;2023-04-01T14:25:39;98772.00;;;16.40
4421;BMP180;11824;51.178;13.546;2023-04-01T14:28:18;98768.00;;;16.30
4421;BMP180;11824;51.178;13.546;2023-04-01T14:31:27;98773.00;;;16.10
4421;BMP180;11824;51.178;13.546;2023-04-01T14:34:05;98771.00;;;15.90
4421;BMP180;11824;51.178;13.546;2023-04-01T14:36:48;98782.00;;;15.70
4421;BMP180;11824;51.178;13.546;2023-04-01T14:39:39;98782.00;;;15.60
4421;BMP180;11824;51.178;13.546;2023-04-01T14:42:38;98784.00;;;15.40
4421;BMP180;11824;51.178;13.546;2023-04-01T14:45:26;98793.00;;;15.30
4421;BMP180;11824;51.178;13.546;2023-04-01T14:48:03;98779.00;;;15.30
4421;BMP180;11824;51.178;13.546;2023-04-01T14:50:42;98784.00;;;15.20
4421;BMP180;11824;51.178;13.546;2023-04-01T14:53:16;98781.00;;;15.20
4421;BMP180;11824;51.178;13.546;2023-04-01T14:55:51;98784.00;;;15.20
4421;BMP180;11824;51.178;13.546;2023-04-01T14:58:21;98785.00;;;15.20
4421;BMP180;11824;51.178;13.546;2023-04-01T15:00:57;98788.00;;;15.30
4421;BMP180;11824;51.178;13.546;2023-04-01T15:03:30;98784.00;;;15.40
4421;BMP180;11824;51.178;13.546;2023-04-01T15:06:19;98781.00;;;15.40
4421;BMP180;11824;51.178;13.546;2023-04-01T15:08:52;98788.00;;;15.50
4421;BMP180;11824;51.178;13.546;2023-04-01T15:11:37;98787.00;;;15.50
4421;BMP180;11824;51.178;13.546;2023-04-01T15:14:31;98803.00;;;15.50
4421;BMP180;11824;51.178;13.546;2023-04-01T15:17:20;98809.00;;;15.40
4421;BMP180;11824;51.178;13.546;2023-04-01T15:20:11;98797.00;;;15.30
4421;BMP180;11824;51.178;13.546;2023-04-01T15:23:07;98800.00;;;15.30
4421;BMP180;11824;51.178;13.546;2023-04-01T15:25:48;98804.00;;;15.20
4421;BMP180;11824;51.178;13.546;2023-04-01T15:28:23;98804.00;;;15.20
4421;BMP180;11824;51.178;13.546;2023-04-01T15:30:58;98809.00;;;15.10
4421;BMP180;11824;51.178;13.546;2023-04-01T15:33:37;98808.00;;;15.10
4421;BMP180;11824;51.178;13.546;2023-04-01T15:36:15;98810.00;;;15.10
4421;BMP180;11824;51.178;13.546;2023-04-01T15:38:50;98812.00;;;15.10
4421;BMP180;11824;51.178;13.546;2023-04-01T15:41:24;98815.00;;;15.10
4421;BMP180;11824;51.178;13.546;2023-04-01T15:43:54;98812.00;;;15.10
4421;BMP180;11824;51.178;13.546;2023-04-01T15:46:49;98825.00;;;15.20
4421;BMP180;11824;51.178;13.546;2023-04-01T15:49:27;98826.00;;;15.20
4421;BMP180;11824;51.178;13.546;2023-04-01T15:52:05;98828.00;;;15.20
4421;BMP180;11824;51.178;13.546;2023-04-01T15:54:49;98831.00;;;15.20
4421;BMP180;11824;51.178;13.546;2023-04-01T15:57:31;98830.00;;;15.20
4421;BMP180;11824;51.178;13.546;2023-04-01T16:00:12;98833.00;;;15.20
4421;BMP180;11824;51.178;13.546;2023-04-01T16:02:47;98838.00;;;15.10
4421;BMP180;11824;51.178;13.546;2023-04-01T16:05:29;98834.00;;;15.10
4421;BMP180;11824;51.178;13.546;2023-04-01T16:08:12;98832.00;;;15.00
4421;BMP180;11824;51.178;13.546;2023-04-01T16:10:52;98837.00;;;14.90
4421;BMP180;11824;51.178;13.546;2023-04-01T16:13:30;98839.00;;;14.90
4421;BMP180;11824;51.178;13.546;2023-04-01T16:16:07;98844.00;;;14.80
4421;BMP180;11824;51.178;13.546;2023-04-01T16:19:08;98844.00;;;14.70
4421;BMP180;11824;51.178;13.546;2023-04-01T16:21:44;98850.00;;;14.60
4421;BMP180;11824;51.178;13.546;2023-04-01T16:24:17;98849.00;;;14.60
4421;BMP180;11824;51.178;13.546;2023-04-01T16:26:53;98844.00;;;14.60
4421;BMP180;11824;51.178;13.546;2023-04-01T16:29:28;98841.00;;;14.50
4421;BMP180;11824;51.178;13.546;2023-04-01T16:32:10;98855.00;;;14.50
4421;BMP180;11824;51.178;13.546;2023-04-01T16:34:43;98861.00;;;14.50
4421;BMP180;11824;51.178;13.546;2023-04-01T16:37:14;98857.00;;;14.40
4421;BMP180;11824;51.178;13.546;2023-04-01T16:39:46;98864.00;;;14.40
4421;BMP180;11824;51.178;13.546;2023-04-01T16:42:25;98873.00;;;14.30
4421;BMP180;11824;51.178;13.546;2023-04-01T16:44:59;98880.00;;;14.30
4421;BMP180;11824;51.178;13.546;2023-04-01T16:47:30;98882.00;;;14.20
4421;BMP180;11824;51.178;13.546;2023-04-01T16:50:07;98882.00;;;14.10
4421;BMP180;11824;51.178;13.546;2023-04-01T16:52:54;98886.00;;;14.10
4421;BMP180;11824;51.178;13.546;2023-04-01T16:55:35;98880.00;;;14.00
4421;BMP180;11824;51.178;13.546;2023-04-01T16:59:17;98880.00;;;13.90
4421;BMP180;11824;51.178;13.546;2023-04-01T17:01:52;98887.00;;;13.80
4421;BMP180;11824;51.178;13.546;2023-04-01T17:04:32;98900.00;;;13.80
4421;BMP180;11824;51.178;13.546;2023-04-01T17:07:11;98897.00;;;13.70
4421;BMP180;11824;51.178;13.546;2023-04-01T17:10:13;98896.00;;;13.70